createdAt,value
2023-08-14T00:00:00.413Z,20.38
2023-08-14T00:02:29.717Z,20.65
2023-08-14T00:04:57.815Z,20.51
2023-08-14T00:07:25.949Z,20.66
2023-08-14T00:09:54.103Z,20.76
2023-08-14T00:12:22.054Z,20.62
2023-08-14T00:14:50.126Z,20.44
2023-08-14T00:17:18.091Z,20.33
2023-08-14T00:19:47.409Z,20.18
2023-08-14T00:22:15.678Z,20.06
2023-08-14T00:24:44.006Z,20.12
2023-08-14T00:27:12.091Z,20.15
2023-08-14T00:29:40.167Z,20.23
2023-08-14T00:32:08.334Z,20.20
2023-08-14T00:34:36.297Z,20.11
2023-08-14T00:37:05.870Z,20.19
2023-08-14T00:39:33.817Z,20.14
2023-08-14T00:42:01.961Z,20.11
2023-08-14T00:44:31.227Z,20.15
2023-08-14T00:46:59.997Z,20.10
2023-08-14T00:49:28.111Z,20.08
2023-08-14T00:51:56.259Z,20.10
2023-08-14T00:54:25.903Z,20.14
2023-08-14T00:56:53.948Z,20.18
2023-08-14T00:59:21.982Z,20.10
2023-08-14T01:01:50.254Z,20.42
2023-08-14T01:04:18.246Z,20.10
2023-08-14T01:06:46.435Z,19.98
2023-08-14T01:09:14.486Z,19.92
2023-08-14T01:11:58.055Z,19.84
2023-08-14T01:14:31.257Z,19.79
2023-08-14T01:17:03.689Z,19.84
2023-08-14T01:19:36.496Z,19.77
2023-08-14T01:22:12.471Z,19.67
2023-08-14T01:24:50.480Z,19.69
2023-08-14T01:27:20.589Z,19.62
2023-08-14T01:29:58.022Z,19.61
2023-08-14T01:32:26.479Z,19.62
2023-08-14T01:34:57.745Z,19.67
2023-08-14T01:37:38.504Z,19.63
2023-08-14T01:40:19.440Z,19.64
2023-08-14T01:42:54.442Z,19.72
2023-08-14T01:45:28.161Z,19.69
2023-08-14T01:48:00.907Z,19.67
2023-08-14T01:50:31.766Z,19.54
2023-08-14T01:53:00.020Z,19.57
2023-08-14T01:55:28.133Z,19.54
2023-08-14T01:57:57.500Z,19.52
2023-08-14T02:00:25.627Z,19.51
2023-08-14T02:02:53.727Z,19.48
2023-08-14T02:05:21.835Z,19.55
2023-08-14T02:07:49.782Z,19.38
2023-08-14T02:10:17.873Z,19.29
2023-08-14T02:12:45.870Z,19.22
2023-08-14T02:15:15.471Z,19.24
2023-08-14T02:17:43.430Z,19.24
2023-08-14T02:20:12.628Z,19.26
2023-08-14T02:22:40.604Z,19.21
2023-08-14T02:25:09.513Z,19.16
2023-08-14T02:27:37.495Z,19.15
2023-08-14T02:30:07.036Z,19.15
2023-08-14T02:32:36.536Z,19.24
2023-08-14T02:35:04.836Z,19.10
2023-08-14T02:37:32.800Z,19.08
2023-08-14T02:40:00.883Z,19.04
2023-08-14T02:42:28.873Z,19.01
2023-08-14T02:44:56.857Z,19.01
2023-08-14T02:47:24.866Z,18.97
2023-08-14T02:49:54.506Z,19.03
2023-08-14T02:52:22.484Z,19.08
2023-08-14T02:54:50.661Z,19.04
2023-08-14T02:57:18.667Z,19.04
2023-08-14T02:59:46.630Z,18.90
2023-08-14T03:02:14.663Z,18.89
2023-08-14T03:04:43.011Z,18.98
2023-08-14T03:07:12.393Z,18.95
2023-08-14T03:09:40.471Z,18.93
2023-08-14T03:12:09.137Z,18.99
2023-08-14T03:14:37.343Z,19.01
2023-08-14T03:17:05.380Z,18.93
2023-08-14T03:19:33.397Z,18.87
2023-08-14T03:22:01.431Z,18.71
2023-08-14T03:24:30.799Z,18.74
2023-08-14T03:26:58.811Z,18.75
2023-08-14T03:29:26.798Z,18.76
2023-08-14T03:31:54.751Z,18.71
2023-08-14T03:34:22.814Z,18.59
2023-08-14T03:36:50.979Z,18.70
2023-08-14T03:39:18.948Z,18.72
2023-08-14T03:41:48.333Z,18.66
2023-08-14T03:44:16.512Z,18.59
2023-08-14T03:46:44.578Z,18.56
2023-08-14T03:49:13.813Z,18.61
2023-08-14T03:51:41.877Z,18.43
2023-08-14T03:54:10.485Z,18.32
2023-08-14T03:56:38.466Z,18.31
2023-08-14T03:59:08.428Z,18.51
2023-08-14T04:01:37.720Z,18.48
2023-08-14T04:04:06.287Z,18.60
2023-08-14T04:06:34.315Z,18.90
2023-08-14T04:09:03.775Z,19.23
2023-08-14T04:11:33.906Z,19.61
2023-08-14T04:14:01.927Z,19.96
2023-08-14T04:16:45.289Z,20.18
2023-08-14T04:19:16.457Z,20.49
2023-08-14T04:21:45.204Z,20.79
2023-08-14T04:24:13.391Z,21.07
2023-08-14T04:26:41.956Z,21.28
2023-08-14T04:29:12.242Z,21.74
2023-08-14T04:31:42.770Z,21.77
2023-08-14T04:34:11.553Z,21.83
2023-08-14T04:36:39.700Z,21.94
2023-08-14T04:39:08.686Z,22.28
2023-08-14T04:41:36.712Z,22.88
2023-08-14T04:44:05.539Z,22.65
2023-08-14T04:46:48.697Z,22.72
2023-08-14T04:49:23.193Z,22.78
2023-08-14T04:51:51.078Z,22.73
2023-08-14T04:54:19.063Z,22.78
2023-08-14T04:56:46.983Z,22.91
2023-08-14T04:59:14.969Z,23.81
2023-08-14T05:01:43.258Z,23.36
2023-08-14T05:04:11.544Z,22.67
2023-08-14T05:06:40.872Z,22.04
2023-08-14T05:09:24.270Z,21.47
2023-08-14T05:11:55.295Z,21.10
2023-08-14T05:14:23.440Z,20.88
2023-08-14T05:16:51.639Z,20.66
2023-08-14T05:19:19.955Z,20.81
2023-08-14T05:21:49.392Z,20.88
2023-08-14T05:24:18.045Z,20.75
2023-08-14T05:26:46.279Z,20.71
2023-08-14T05:29:14.393Z,20.70
2023-08-14T05:31:42.492Z,20.58
2023-08-14T05:34:10.564Z,20.71
2023-08-14T05:36:38.577Z,20.83
2023-08-14T05:39:09.691Z,20.65
2023-08-14T05:41:37.666Z,20.72
2023-08-14T05:44:06.664Z,20.76
2023-08-14T05:46:34.905Z,20.92
2023-08-14T05:49:02.900Z,20.84
2023-08-14T05:51:30.934Z,20.82
2023-08-14T05:54:01.887Z,20.77
2023-08-14T05:56:31.829Z,21.03
2023-08-14T05:58:59.902Z,21.23
2023-08-14T06:01:28.614Z,21.42
2023-08-14T06:03:56.900Z,21.50
2023-08-14T06:06:25.176Z,21.49
2023-08-14T06:08:53.254Z,21.58
2023-08-14T06:11:21.317Z,21.64
2023-08-14T06:13:50.706Z,21.85
2023-08-14T06:16:18.730Z,21.92
2023-08-14T06:18:46.969Z,21.96
2023-08-14T06:21:14.920Z,22.01
2023-08-14T06:23:42.920Z,21.92
2023-08-14T06:26:11.255Z,21.82
2023-08-14T06:28:39.324Z,21.86
2023-08-14T06:31:09.256Z,21.75
2023-08-14T06:33:38.919Z,21.70
2023-08-14T06:36:08.106Z,21.63
2023-08-14T06:38:36.618Z,21.98
2023-08-14T06:41:04.580Z,22.51
2023-08-14T06:43:33.078Z,22.34
2023-08-14T06:46:01.250Z,22.51
2023-08-14T06:48:31.627Z,22.46
2023-08-14T06:51:00.361Z,22.48
2023-08-14T06:53:28.601Z,22.69
2023-08-14T06:55:57.354Z,22.64
2023-08-14T06:58:25.350Z,22.64
2023-08-14T07:00:53.535Z,22.73
2023-08-14T07:03:21.760Z,23.06
2023-08-14T07:05:51.163Z,23.13
2023-08-14T07:08:19.190Z,23.23
2023-08-14T07:10:47.405Z,23.32
2023-08-14T07:13:15.485Z,23.47
2023-08-14T07:15:43.645Z,23.44
2023-08-14T07:18:11.618Z,23.16
2023-08-14T07:20:39.642Z,23.18
2023-08-14T07:23:09.036Z,23.31
2023-08-14T07:25:36.992Z,23.30
2023-08-14T07:28:05.881Z,23.38
2023-08-14T07:30:33.977Z,23.43
2023-08-14T07:33:01.990Z,23.48
2023-08-14T07:35:30.046Z,23.43
2023-08-14T07:37:59.030Z,23.61
2023-08-14T07:40:28.545Z,23.50
2023-08-14T07:42:56.637Z,23.61
2023-08-14T07:45:24.638Z,23.71
2023-08-14T07:47:52.704Z,23.90
2023-08-14T07:50:20.836Z,23.95
2023-08-14T07:52:48.958Z,23.92
2023-08-14T07:55:17.209Z,24.00
2023-08-14T07:57:47.161Z,24.00
2023-08-14T08:00:16.907Z,23.92
2023-08-14T08:02:44.784Z,23.90
2023-08-14T08:05:12.799Z,23.98
2023-08-14T08:07:40.896Z,24.23
2023-08-14T08:10:09.612Z,24.11
2023-08-14T08:12:37.769Z,23.98
2023-08-14T08:15:08.591Z,24.14
2023-08-14T08:17:36.583Z,24.16
2023-08-14T08:20:06.923Z,24.27
2023-08-14T08:22:34.924Z,24.40
2023-08-14T08:25:02.900Z,24.57
2023-08-14T08:27:30.942Z,24.54
2023-08-14T08:29:58.937Z,24.52
2023-08-14T08:32:31.016Z,24.34
2023-08-14T08:34:59.297Z,24.45
2023-08-14T08:37:27.300Z,24.36
2023-08-14T08:39:55.263Z,24.50
2023-08-14T08:42:24.654Z,24.60
2023-08-14T08:44:57.645Z,24.65
2023-08-14T08:47:31.348Z,24.74
2023-08-14T08:50:01.352Z,24.90
2023-08-14T08:52:30.089Z,24.97
2023-08-14T08:55:02.235Z,25.24
2023-08-14T08:57:31.544Z,25.35
2023-08-14T09:00:01.978Z,25.50
2023-08-14T09:02:31.432Z,25.82
2023-08-14T09:04:59.548Z,25.65
2023-08-14T09:07:28.087Z,25.62
2023-08-14T09:09:56.179Z,25.82
2023-08-14T09:12:24.155Z,25.89
2023-08-14T09:15:06.499Z,25.93
2023-08-14T09:17:36.661Z,25.80
2023-08-14T09:20:11.902Z,25.75
2023-08-14T09:22:47.312Z,26.09
2023-08-14T09:25:16.673Z,26.06
2023-08-14T09:27:45.483Z,25.88
2023-08-14T09:30:15.166Z,25.97
2023-08-14T09:32:44.806Z,26.08
2023-08-14T09:35:12.969Z,26.27
2023-08-14T09:37:41.948Z,26.35
2023-08-14T09:40:14.424Z,26.46
2023-08-14T09:42:44.480Z,26.56
2023-08-14T09:45:14.978Z,26.47
2023-08-14T09:47:50.609Z,26.51
2023-08-14T09:50:21.189Z,26.51
2023-08-14T09:52:50.141Z,26.63
2023-08-14T09:55:18.831Z,26.44
2023-08-14T09:57:48.735Z,26.63
2023-08-14T10:00:17.315Z,26.67
2023-08-14T10:02:49.445Z,26.85
2023-08-14T10:05:19.256Z,27.01
2023-08-14T10:07:48.457Z,27.28
2023-08-14T10:10:19.223Z,26.97
2023-08-14T10:12:56.050Z,26.77
2023-08-14T10:15:30.229Z,26.91
2023-08-14T10:18:03.308Z,26.75
2023-08-14T10:20:36.363Z,26.80
2023-08-14T10:23:05.851Z,26.72
2023-08-14T10:25:38.225Z,26.94
2023-08-14T10:28:08.760Z,27.09
2023-08-14T10:30:38.490Z,27.25
2023-08-14T10:33:09.777Z,27.00
2023-08-14T10:35:51.377Z,27.23
2023-08-14T10:38:25.192Z,27.50
2023-08-14T10:40:58.845Z,27.45
2023-08-14T10:43:30.438Z,27.68
2023-08-14T10:45:58.493Z,27.30
2023-08-14T10:48:28.015Z,27.38
2023-08-14T10:51:01.739Z,26.93
2023-08-14T10:53:32.731Z,26.88
2023-08-14T10:56:01.534Z,27.17
2023-08-14T10:58:51.778Z,27.33
2023-08-14T11:01:20.230Z,27.55
2023-08-14T11:04:04.395Z,27.91
2023-08-14T11:07:04.071Z,27.80
2023-08-14T11:09:35.475Z,27.87
2023-08-14T11:12:07.432Z,28.24
2023-08-14T11:14:38.481Z,28.32
2023-08-14T11:17:06.752Z,27.90
2023-08-14T11:19:37.588Z,27.77
2023-08-14T11:22:06.308Z,27.87
2023-08-14T11:24:34.770Z,28.36
2023-08-14T11:27:03.675Z,28.16
2023-08-14T11:29:33.136Z,28.11
2023-08-14T11:32:02.199Z,27.79
2023-08-14T11:34:33.284Z,28.29
2023-08-14T11:37:07.832Z,28.22
2023-08-14T11:39:37.105Z,28.08
2023-08-14T11:42:06.105Z,27.64
2023-08-14T11:44:34.969Z,28.42
2023-08-14T11:47:04.153Z,28.21
2023-08-14T11:49:33.476Z,28.16
2023-08-14T11:52:04.911Z,28.43
2023-08-14T11:54:33.753Z,28.11
2023-08-14T11:57:04.598Z,27.88
2023-08-14T11:59:32.897Z,28.14
2023-08-14T12:02:01.841Z,28.58
2023-08-14T12:04:29.920Z,28.41
2023-08-14T12:06:58.138Z,28.42
2023-08-14T12:09:29.575Z,28.71
2023-08-14T12:11:57.697Z,28.92
2023-08-14T12:14:25.802Z,29.14
2023-08-14T12:16:53.808Z,28.73
2023-08-14T12:19:23.138Z,28.79
2023-08-14T12:21:58.179Z,29.01
2023-08-14T12:24:26.184Z,28.80
2023-08-14T12:26:55.636Z,29.04
2023-08-14T12:29:24.406Z,28.96
2023-08-14T12:31:52.676Z,28.97
2023-08-14T12:34:22.548Z,29.12
2023-08-14T12:36:50.561Z,29.50
2023-08-14T12:39:18.481Z,29.21
2023-08-14T12:41:46.529Z,29.21
2023-08-14T12:44:16.107Z,29.02
2023-08-14T12:46:44.185Z,28.96
2023-08-14T12:49:12.140Z,29.21
2023-08-14T12:51:41.801Z,29.42
2023-08-14T12:54:09.861Z,29.28
2023-08-14T12:56:38.520Z,29.16
2023-08-14T12:59:06.540Z,28.57
2023-08-14T13:01:36.397Z,28.89
2023-08-14T13:04:07.567Z,29.97
2023-08-14T13:06:36.315Z,29.63
2023-08-14T13:09:05.044Z,29.45
2023-08-14T13:11:33.188Z,29.54
2023-08-14T13:14:01.456Z,29.42
2023-08-14T13:16:29.635Z,29.79
2023-08-14T13:18:59.079Z,30.16
2023-08-14T13:21:26.850Z,30.02
2023-08-14T13:23:54.896Z,30.58
2023-08-14T13:26:26.823Z,30.52
2023-08-14T13:28:55.884Z,30.43
2023-08-14T13:31:24.215Z,30.29
2023-08-14T13:33:52.198Z,30.14
2023-08-14T13:36:21.599Z,29.97
2023-08-14T13:38:49.364Z,29.33
2023-08-14T13:41:17.337Z,29.16
2023-08-14T13:43:45.390Z,28.75
2023-08-14T13:46:13.357Z,28.85
2023-08-14T13:48:41.409Z,28.82
2023-08-14T13:51:09.400Z,29.12
2023-08-14T13:53:38.857Z,29.71
2023-08-14T13:56:06.884Z,29.56
2023-08-14T13:58:34.921Z,29.50
2023-08-14T14:01:03.460Z,29.31
2023-08-14T14:03:31.524Z,29.19
2023-08-14T14:05:59.667Z,29.72
2023-08-14T14:08:27.663Z,29.86
2023-08-14T14:10:56.999Z,29.96
2023-08-14T14:13:25.124Z,30.11
2023-08-14T14:15:53.198Z,30.10
2023-08-14T14:18:21.268Z,29.98
2023-08-14T14:20:50.199Z,30.51
2023-08-14T14:23:18.266Z,30.20
2023-08-14T14:25:46.228Z,29.86
2023-08-14T14:28:15.830Z,29.68
2023-08-14T14:30:43.805Z,29.23
2023-08-14T14:33:11.792Z,28.94
2023-08-14T14:35:39.742Z,28.69
2023-08-14T14:38:07.671Z,28.71
2023-08-14T14:40:35.673Z,28.92
2023-08-14T14:43:03.727Z,29.13
2023-08-14T14:45:35.447Z,28.59
2023-08-14T14:48:04.441Z,28.29
2023-08-14T14:50:32.450Z,28.64
2023-08-14T14:53:00.558Z,28.52
2023-08-14T14:55:29.339Z,28.55
2023-08-14T14:57:57.474Z,28.74
2023-08-14T15:00:27.048Z,28.36
2023-08-14T15:02:56.787Z,28.49
2023-08-14T15:05:29.173Z,28.39
2023-08-14T15:07:58.725Z,28.32
2023-08-14T15:10:26.876Z,28.67
2023-08-14T15:12:55.084Z,28.66
2023-08-14T15:15:23.845Z,28.89
2023-08-14T15:17:51.838Z,28.76
2023-08-14T15:20:21.485Z,28.90
2023-08-14T15:22:49.457Z,28.80
2023-08-14T15:25:17.794Z,28.74
2023-08-14T15:27:45.974Z,28.86
2023-08-14T15:30:15.407Z,28.99
2023-08-14T15:32:43.239Z,28.88
2023-08-14T15:35:11.569Z,29.16
2023-08-14T15:37:40.901Z,29.37
2023-08-14T15:40:10.404Z,28.68
2023-08-14T15:42:38.379Z,28.55
2023-08-14T15:45:08.841Z,28.73
2023-08-14T15:47:37.543Z,28.54
2023-08-14T15:50:06.928Z,28.45
2023-08-14T15:52:34.731Z,28.54
2023-08-14T15:55:04.468Z,28.70
2023-08-14T15:57:32.482Z,28.47
2023-08-14T16:00:01.225Z,28.31
2023-08-14T16:02:29.286Z,28.25
2023-08-14T16:04:58.127Z,27.93
2023-08-14T16:07:26.139Z,27.81
2023-08-14T16:09:54.230Z,27.85
2023-08-14T16:12:23.764Z,27.77
2023-08-14T16:14:51.746Z,28.15
2023-08-14T16:17:19.950Z,27.93
2023-08-14T16:19:48.156Z,27.90
2023-08-14T16:22:16.279Z,28.59
2023-08-14T16:24:44.305Z,28.09
2023-08-14T16:27:14.335Z,28.21
2023-08-14T16:29:43.790Z,27.93
2023-08-14T16:32:11.738Z,28.20
2023-08-14T16:34:39.764Z,28.62
2023-08-14T16:37:07.751Z,28.48
2023-08-14T16:39:35.763Z,28.11
2023-08-14T16:42:04.018Z,28.38
2023-08-14T16:44:32.051Z,28.05
2023-08-14T16:47:04.368Z,28.26
2023-08-14T16:49:32.326Z,27.94
2023-08-14T16:52:00.264Z,27.91
2023-08-14T16:54:28.324Z,27.87
2023-08-14T16:56:56.286Z,28.04
2023-08-14T16:59:24.356Z,28.07
2023-08-14T17:01:52.342Z,27.95
2023-08-14T17:04:22.641Z,27.82
2023-08-14T17:06:50.633Z,27.91
2023-08-14T17:09:19.013Z,28.63
2023-08-14T17:11:46.981Z,28.87
2023-08-14T17:14:17.239Z,29.69
2023-08-14T17:16:45.350Z,29.32
2023-08-14T17:19:13.524Z,29.06
2023-08-14T17:21:44.734Z,28.65
2023-08-14T17:24:12.779Z,28.70
2023-08-14T17:26:42.895Z,28.38
2023-08-14T17:29:11.145Z,28.13
2023-08-14T17:31:39.214Z,27.91
2023-08-14T17:34:07.342Z,27.55
2023-08-14T17:36:35.348Z,27.36
2023-08-14T17:39:06.628Z,27.38
2023-08-14T17:41:34.783Z,27.20
2023-08-14T17:44:02.878Z,27.19
2023-08-14T17:46:30.968Z,26.99
2023-08-14T17:48:59.097Z,26.76
2023-08-14T17:51:27.046Z,26.59
2023-08-14T17:53:55.057Z,26.42
2023-08-14T17:56:24.402Z,26.42
2023-08-14T17:58:52.545Z,26.44
2023-08-14T18:01:20.983Z,26.34
2023-08-14T18:03:49.213Z,26.21
2023-08-14T18:06:17.414Z,26.07
2023-08-14T18:08:45.490Z,26.03
2023-08-14T18:11:13.977Z,26.06
2023-08-14T18:13:43.396Z,25.93
2023-08-14T18:16:11.450Z,25.98
2023-08-14T18:18:39.534Z,25.99
2023-08-14T18:21:07.550Z,25.88
2023-08-14T18:23:37.388Z,25.76
2023-08-14T18:26:05.372Z,25.75
2023-08-14T18:28:33.362Z,25.71
2023-08-14T18:31:02.843Z,25.63
2023-08-14T18:33:31.325Z,25.61
2023-08-14T18:35:59.318Z,25.51
2023-08-14T18:38:27.336Z,25.55
2023-08-14T18:40:57.905Z,25.44
2023-08-14T18:43:27.181Z,25.42
2023-08-14T18:45:56.563Z,25.43
2023-08-14T18:48:25.886Z,25.31
2023-08-14T18:50:54.042Z,25.30
2023-08-14T18:53:24.496Z,25.34
2023-08-14T18:55:56.202Z,25.27
2023-08-14T18:58:35.726Z,25.26
2023-08-14T19:01:04.071Z,25.22
2023-08-14T19:03:33.383Z,25.10
2023-08-14T19:06:01.439Z,24.97
2023-08-14T19:08:29.493Z,25.04
2023-08-14T19:10:57.450Z,24.88
2023-08-14T19:13:25.475Z,24.83
2023-08-14T19:15:53.517Z,24.80
2023-08-14T19:18:22.034Z,24.83
2023-08-14T19:20:51.504Z,24.75
2023-08-14T19:23:19.493Z,24.72
2023-08-14T19:25:48.118Z,24.70
2023-08-14T19:28:22.138Z,24.61
2023-08-14T19:30:50.780Z,24.59
2023-08-14T19:33:18.974Z,24.54
2023-08-14T19:35:46.978Z,24.58
2023-08-14T19:38:16.356Z,24.64
2023-08-14T19:40:44.356Z,24.64
2023-08-14T19:43:12.241Z,24.71
2023-08-14T19:45:40.197Z,24.60
2023-08-14T19:48:08.869Z,24.66
2023-08-14T19:50:36.841Z,24.61
2023-08-14T19:53:05.155Z,24.60
2023-08-14T19:55:39.948Z,24.57
2023-08-14T19:58:08.261Z,24.53
2023-08-14T20:00:36.268Z,24.54
2023-08-14T20:03:05.679Z,24.52
2023-08-14T20:05:33.719Z,24.53
2023-08-14T20:08:01.662Z,24.52
2023-08-14T20:10:29.555Z,24.46
2023-08-14T20:12:58.816Z,24.42
2023-08-14T20:15:26.947Z,24.39
2023-08-14T20:17:54.946Z,24.37
2023-08-14T20:20:22.959Z,24.47
2023-08-14T20:22:50.878Z,24.40
2023-08-14T20:25:19.054Z,24.33
2023-08-14T20:27:47.003Z,24.27
2023-08-14T20:30:16.597Z,24.20
2023-08-14T20:32:44.623Z,24.14
2023-08-14T20:35:12.880Z,24.10
2023-08-14T20:37:40.794Z,24.06
2023-08-14T20:40:11.930Z,24.04
2023-08-14T20:42:40.184Z,24.05
2023-08-14T20:45:09.040Z,24.04
2023-08-14T20:47:38.462Z,24.05
2023-08-14T20:50:07.863Z,24.06
2023-08-14T20:52:35.863Z,24.06
2023-08-14T20:55:04.082Z,24.06
2023-08-14T20:57:32.030Z,24.03
2023-08-14T21:00:00.088Z,24.00
2023-08-14T21:02:28.108Z,23.95
2023-08-14T21:04:57.583Z,23.91
2023-08-14T21:07:25.557Z,23.92
2023-08-14T21:09:53.573Z,23.85
2023-08-14T21:12:21.468Z,23.78
2023-08-14T21:14:49.440Z,23.75
2023-08-14T21:17:17.608Z,23.70
2023-08-14T21:19:45.842Z,23.63
2023-08-14T21:22:15.206Z,23.60
2023-08-14T21:24:43.158Z,23.58
2023-08-14T21:27:11.300Z,23.56
2023-08-14T21:29:39.272Z,23.55
2023-08-14T21:32:07.682Z,23.49
2023-08-14T21:34:36.983Z,23.45
2023-08-14T21:37:05.773Z,23.41
2023-08-14T21:39:35.244Z,23.36
2023-08-14T21:42:03.177Z,23.32
2023-08-14T21:44:31.156Z,23.24
2023-08-14T21:46:59.067Z,23.20
2023-08-14T21:51:54.817Z,23.18
2023-08-14T21:54:22.771Z,23.16
2023-08-14T21:56:52.107Z,23.18
2023-08-14T21:59:20.133Z,23.17
2023-08-14T22:01:48.728Z,23.21
2023-08-14T22:04:16.697Z,23.11
2023-08-14T22:06:44.693Z,23.09
2023-08-14T22:09:12.749Z,23.14
2023-08-14T22:11:41.274Z,23.16
2023-08-14T22:16:38.580Z,23.24
2023-08-14T22:19:06.699Z,23.29
2023-08-14T22:21:34.898Z,23.25
2023-08-14T22:24:02.883Z,23.22
2023-08-14T22:26:30.813Z,23.24
2023-08-14T22:28:59.154Z,23.22
2023-08-14T22:33:56.360Z,23.23
2023-08-14T22:36:24.327Z,23.21
2023-08-14T22:38:52.294Z,23.16
2023-08-14T22:41:20.258Z,23.16
2023-08-14T22:43:48.210Z,23.12
2023-08-14T22:46:16.118Z,23.16
2023-08-14T22:48:45.398Z,23.12
2023-08-14T22:51:13.623Z,23.19
2023-08-14T22:53:42.345Z,23.12
2023-08-14T22:56:10.417Z,23.03
2023-08-14T22:58:38.391Z,23.06
2023-08-14T23:01:06.384Z,23.01
2023-08-14T23:03:34.590Z,23.04
2023-08-14T23:06:03.889Z,23.02
2023-08-14T23:08:31.923Z,22.94
2023-08-14T23:10:59.844Z,23.04
2023-08-14T23:13:27.742Z,23.17
2023-08-14T23:15:55.772Z,23.08
2023-08-14T23:18:23.861Z,23.00
2023-08-14T23:20:51.773Z,22.89
2023-08-14T23:23:21.075Z,22.88
2023-08-14T23:25:49.018Z,22.86
2023-08-14T23:28:17.038Z,22.93
2023-08-14T23:30:44.985Z,22.94
2023-08-14T23:33:12.935Z,23.05
2023-08-14T23:35:40.866Z,23.01
2023-08-14T23:38:08.762Z,23.10
2023-08-14T23:40:38.106Z,23.02
2023-08-14T23:43:06.244Z,23.05
2023-08-14T23:45:34.211Z,23.05
2023-08-14T23:48:03.803Z,23.03
2023-08-14T23:50:31.800Z,22.81
2023-08-14T23:52:59.765Z,22.84
2023-08-14T23:55:27.741Z,22.68
2023-08-14T23:57:57.103Z,21.68
